Winter Haven, Florida
Current Conditions -  °F | °C
As of 10:53 AM on Friday 24 Oct 2014 (Local Time) from KGIF Reporting Station
Clear Clear  
Wind Chill: 76°   Ceiling: Unl
Heat Index: 76°   Visibility: 10mi
Dew Point: 58°   Wind: 12mph
Humidity: 54%   Direction: 20°NNE
Pressure: 30.01"   Gusts: NA
Location:  28.02°N, 81.73°W
Report Text: KGIF 241453Z AUTO 02010KT 10SM CLR 24/14 A3001 RMK AO2 SLP161 T02440144 50009
Loading
Personal Weather Stations






























Interactive Weather Map
Tropical Storm Tracking
New forecast layout! Learn more

10-Day Weather Forecast

Advertisements
Track Severe Weather on mobile